createdAt,value
2023-02-26T00:01:49.091Z,1.17
2023-02-26T00:04:17.777Z,0.80
2023-02-26T00:06:54.621Z,1.00
2023-02-26T00:09:25.604Z,0.80
2023-02-26T00:11:55.024Z,0.70
2023-02-26T00:14:24.780Z,0.70
2023-02-26T00:17:07.110Z,0.70
2023-02-26T00:19:35.829Z,0.90
2023-02-26T00:22:04.928Z,1.13
2023-02-26T00:24:33.336Z,0.70
2023-02-26T00:27:01.776Z,0.93
2023-02-26T00:29:30.634Z,0.70
2023-02-26T00:32:01.152Z,1.17
2023-02-26T00:34:30.253Z,0.80
2023-02-26T00:37:10.084Z,0.80
2023-02-26T00:39:45.409Z,0.90
2023-02-26T00:42:14.540Z,0.80
2023-02-26T00:44:43.552Z,1.00
2023-02-26T00:47:20.274Z,0.90
2023-02-26T00:50:00.205Z,0.60
2023-02-26T00:52:39.634Z,0.67
2023-02-26T00:55:08.695Z,1.07
2023-02-26T00:57:37.226Z,0.90
2023-02-26T01:00:08.172Z,0.83
2023-02-26T01:02:39.731Z,1.30
2023-02-26T01:05:09.619Z,0.83
2023-02-26T01:07:44.356Z,0.90
2023-02-26T01:10:14.435Z,1.33
2023-02-26T01:12:44.377Z,0.83
2023-02-26T01:15:13.583Z,0.87
2023-02-26T01:17:50.897Z,1.00
2023-02-26T01:20:22.370Z,1.13
2023-02-26T01:22:56.033Z,0.60
2023-02-26T01:25:28.193Z,1.30
2023-02-26T01:27:57.982Z,0.50
2023-02-26T01:30:27.592Z,0.70
2023-02-26T01:33:04.938Z,0.80
2023-02-26T01:35:46.463Z,0.70
2023-02-26T01:38:25.940Z,0.57
2023-02-26T01:41:14.872Z,0.53
2023-02-26T01:43:52.725Z,0.40
2023-02-26T01:46:32.548Z,0.77
2023-02-26T01:49:03.574Z,0.57
2023-02-26T01:51:52.293Z,0.70
2023-02-26T01:54:22.880Z,0.60
2023-02-26T01:56:54.616Z,1.70
2023-02-26T01:59:24.831Z,0.93
2023-02-26T02:01:54.950Z,0.93
2023-02-26T02:04:27.478Z,0.60
2023-02-26T02:06:56.080Z,0.50
2023-02-26T02:09:24.497Z,0.53
2023-02-26T02:12:12.873Z,0.50
2023-02-26T02:14:50.249Z,0.77
2023-02-26T02:17:24.866Z,0.40
2023-02-26T02:20:17.832Z,0.70
2023-02-26T02:23:05.166Z,0.60
2023-02-26T02:26:04.258Z,0.60
2023-02-26T02:28:43.874Z,0.60
2023-02-26T02:31:21.087Z,0.60
2023-02-26T02:33:53.030Z,0.57
2023-02-26T02:36:32.559Z,0.50
2023-02-26T02:39:07.275Z,0.50
2023-02-26T02:41:40.312Z,0.63
2023-02-26T02:44:12.924Z,0.50
2023-02-26T02:46:45.699Z,0.50
2023-02-26T02:49:18.512Z,0.80
2023-02-26T02:51:52.150Z,0.80
2023-02-26T02:54:25.356Z,1.00
2023-02-26T02:56:57.611Z,0.70
2023-02-26T02:59:29.372Z,0.70
2023-02-26T03:02:05.420Z,0.50
2023-02-26T03:04:33.816Z,1.03
2023-02-26T03:07:02.243Z,0.30
2023-02-26T03:09:30.810Z,0.23
2023-02-26T03:11:59.241Z,0.25
2023-02-26T03:14:28.566Z,1.17
2023-02-26T03:17:13.570Z,0.57
2023-02-26T03:19:51.701Z,0.30
2023-02-26T03:22:25.821Z,0.40
2023-02-26T03:25:02.300Z,0.20
2023-02-26T03:27:40.217Z,0.40
2023-02-26T03:30:16.168Z,0.57
2023-02-26T03:32:53.354Z,0.60
2023-02-26T03:35:29.286Z,1.20
2023-02-26T03:38:01.941Z,3.20
2023-02-26T03:40:36.540Z,5.27
2023-02-26T03:43:09.481Z,3.43
2023-02-26T03:45:40.914Z,2.90
2023-02-26T03:48:14.626Z,4.73
2023-02-26T03:50:48.011Z,4.10
2023-02-26T03:53:20.445Z,2.97
2023-02-26T03:55:54.519Z,2.00
2023-02-26T03:58:23.334Z,1.30
2023-02-26T04:00:58.549Z,0.60
2023-02-26T04:03:32.953Z,0.50
2023-02-26T04:06:02.922Z,0.40
2023-02-26T04:08:31.778Z,0.97
2023-02-26T04:11:03.090Z,0.90
2023-02-26T04:13:31.441Z,0.40
2023-02-26T04:15:59.856Z,0.60
2023-02-26T04:18:29.659Z,0.30
2023-02-26T04:20:57.977Z,0.50
2023-02-26T04:23:26.414Z,0.30
2023-02-26T04:25:54.950Z,1.00
2023-02-26T04:28:23.513Z,0.50
2023-02-26T04:30:52.234Z,0.33
2023-02-26T04:33:20.822Z,0.30
2023-02-26T04:35:50.839Z,0.30
2023-02-26T04:38:19.547Z,0.83
2023-02-26T04:40:48.539Z,0.33
2023-02-26T04:43:17.016Z,0.30
2023-02-26T04:45:47.593Z,0.70
2023-02-26T04:48:16.657Z,0.53
2023-02-26T04:50:45.626Z,0.27
2023-02-26T04:53:15.492Z,0.30
2023-02-26T04:55:43.866Z,0.50
2023-02-26T04:58:13.004Z,0.40
2023-02-26T05:00:41.553Z,0.30
2023-02-26T05:03:10.013Z,0.30
2023-02-26T05:05:38.362Z,1.90
2023-02-26T05:08:06.795Z,0.60
2023-02-26T05:10:36.515Z,0.20
2023-02-26T05:13:04.912Z,0.53
2023-02-26T05:15:33.864Z,0.50
2023-02-26T05:18:03.174Z,0.20
2023-02-26T05:20:31.624Z,0.20
2023-02-26T05:23:00.118Z,0.83
2023-02-26T05:25:28.430Z,0.37
2023-02-26T05:27:58.200Z,0.30
2023-02-26T05:30:26.723Z,0.33
2023-02-26T05:32:55.695Z,0.20
2023-02-26T05:35:24.457Z,0.20
2023-02-26T05:37:53.828Z,0.20
2023-02-26T05:40:22.273Z,0.30
2023-02-26T05:42:52.043Z,0.20
2023-02-26T05:45:21.882Z,0.20
2023-02-26T05:47:50.546Z,0.40
2023-02-26T05:50:19.066Z,0.33
2023-02-26T05:52:47.855Z,0.20
2023-02-26T05:55:16.870Z,0.30
2023-02-26T05:57:45.259Z,0.30
2023-02-26T06:00:14.752Z,0.30
2023-02-26T06:02:45.536Z,0.47
2023-02-26T06:05:13.992Z,0.30
2023-02-26T06:07:42.541Z,0.20
2023-02-26T06:10:12.554Z,0.20
2023-02-26T06:12:42.121Z,0.40
2023-02-26T06:15:11.470Z,0.20
2023-02-26T06:17:41.094Z,0.40
2023-02-26T06:20:12.842Z,0.30
2023-02-26T06:22:41.520Z,0.40
2023-02-26T06:25:10.788Z,0.30
2023-02-26T06:27:39.111Z,0.20
2023-02-26T06:30:08.868Z,0.53
2023-02-26T06:32:37.306Z,0.30
2023-02-26T06:35:06.566Z,0.10
2023-02-26T06:37:36.580Z,0.37
2023-02-26T06:40:06.276Z,0.17
2023-02-26T06:42:34.679Z,0.30
2023-02-26T06:45:03.413Z,0.30
2023-02-26T06:47:31.810Z,0.20
2023-02-26T06:50:00.275Z,0.30
2023-02-26T06:52:28.982Z,0.20
2023-02-26T06:54:58.728Z,0.30
2023-02-26T06:57:27.249Z,0.30
2023-02-26T06:59:55.714Z,0.20
2023-02-26T07:02:25.025Z,0.17
2023-02-26T07:05:11.633Z,0.30
2023-02-26T07:07:40.041Z,0.33
2023-02-26T07:10:11.377Z,0.30
2023-02-26T07:12:40.154Z,0.30
2023-02-26T07:15:09.856Z,0.67
2023-02-26T07:17:38.196Z,0.37
2023-02-26T07:20:10.327Z,0.30
2023-02-26T07:22:38.992Z,0.60
2023-02-26T07:25:09.774Z,0.37
2023-02-26T07:27:38.674Z,2.37
2023-02-26T07:30:08.974Z,3.50
2023-02-26T07:32:37.418Z,3.23
2023-02-26T07:35:06.414Z,0.80
2023-02-26T07:37:34.852Z,2.37
2023-02-26T07:40:04.201Z,3.77
2023-02-26T07:42:34.014Z,3.13
2023-02-26T07:45:03.426Z,2.47
2023-02-26T07:47:31.759Z,2.57
2023-02-26T07:50:00.188Z,0.70
2023-02-26T07:52:28.933Z,0.33
2023-02-26T07:54:57.810Z,0.53
2023-02-26T07:57:26.118Z,0.63
2023-02-26T07:59:56.027Z,1.07
2023-02-26T08:02:26.188Z,0.30
2023-02-26T08:04:54.762Z,0.90
2023-02-26T08:07:23.222Z,0.30
2023-02-26T08:09:51.559Z,0.47
2023-02-26T08:12:20.045Z,0.50
2023-02-26T08:14:48.708Z,0.70
2023-02-26T08:17:18.507Z,1.40
2023-02-26T08:19:46.856Z,1.17
2023-02-26T08:22:15.351Z,1.30
2023-02-26T08:24:43.971Z,2.10
2023-02-26T08:27:13.656Z,1.83
2023-02-26T08:29:42.903Z,1.23
2023-02-26T08:32:11.395Z,3.07
2023-02-26T08:34:41.466Z,1.60
2023-02-26T08:37:11.809Z,2.40
2023-02-26T08:39:40.376Z,0.50
2023-02-26T08:42:10.195Z,0.77
2023-02-26T08:44:38.583Z,1.00
2023-02-26T08:47:08.858Z,0.80
2023-02-26T08:49:37.284Z,0.50
2023-02-26T08:52:07.557Z,1.40
2023-02-26T08:54:35.958Z,0.75
2023-02-26T08:57:04.306Z,0.88
2023-02-26T08:59:32.684Z,0.57
2023-02-26T09:02:01.198Z,2.28
2023-02-26T09:04:31.196Z,1.03
2023-02-26T09:06:59.836Z,0.50
2023-02-26T09:09:29.653Z,0.30
2023-02-26T09:11:59.102Z,0.17
2023-02-26T09:14:27.869Z,0.40
2023-02-26T09:16:56.277Z,0.65
2023-02-26T09:19:25.159Z,0.20
2023-02-26T09:21:53.582Z,0.13
2023-02-26T09:24:21.874Z,0.20
2023-02-26T09:26:51.951Z,0.43
2023-02-26T09:29:20.388Z,0.10
2023-02-26T09:31:48.898Z,0.10
2023-02-26T09:34:17.388Z,0.10
2023-02-26T09:36:46.613Z,0.28
2023-02-26T09:39:15.090Z,0.30
2023-02-26T09:41:47.600Z,0.60
2023-02-26T09:44:24.969Z,0.10
2023-02-26T09:47:03.502Z,0.20
2023-02-26T09:49:43.515Z,0.28
2023-02-26T09:52:19.853Z,0.10
2023-02-26T09:54:50.737Z,0.20
2023-02-26T09:57:28.576Z,0.10
2023-02-26T10:00:00.455Z,0.10
2023-02-26T10:02:39.409Z,0.08
2023-02-26T10:05:20.948Z,0.10
2023-02-26T10:07:57.950Z,0.30
2023-02-26T10:10:35.524Z,0.30
2023-02-26T10:13:04.368Z,0.25
2023-02-26T10:15:41.506Z,0.20
2023-02-26T10:18:13.522Z,0.20
2023-02-26T10:20:51.985Z,0.03
2023-02-26T10:23:26.238Z,0.10
2023-02-26T10:26:01.298Z,0.20
2023-02-26T10:28:46.334Z,0.10
2023-02-26T10:31:24.487Z,0.20
2023-02-26T10:34:03.828Z,0.30
2023-02-26T10:36:45.436Z,0.30
2023-02-26T10:39:25.192Z,0.30
2023-02-26T10:41:54.317Z,0.10
2023-02-26T10:44:29.154Z,0.00
2023-02-26T10:47:07.551Z,0.17
2023-02-26T10:49:51.424Z,0.15
2023-02-26T10:52:22.310Z,0.08
2023-02-26T10:55:17.490Z,0.00
2023-02-26T10:57:50.210Z,0.10
2023-02-26T11:00:21.464Z,0.10
2023-02-26T11:02:55.796Z,0.17
2023-02-26T11:05:25.644Z,0.00
2023-02-26T11:07:58.534Z,0.10
2023-02-26T11:10:29.852Z,0.03
2023-02-26T11:12:59.501Z,0.00
2023-02-26T11:15:28.721Z,0.10
2023-02-26T11:18:01.098Z,0.00
2023-02-26T11:20:37.368Z,0.22
2023-02-26T11:23:09.040Z,0.10
2023-02-26T11:25:38.161Z,0.20
2023-02-26T11:28:09.592Z,0.10
2023-02-26T11:30:39.880Z,0.20
2023-02-26T11:33:24.405Z,0.10
2023-02-26T11:35:53.620Z,0.20
2023-02-26T11:38:26.524Z,0.00
2023-02-26T11:40:57.528Z,0.05
2023-02-26T11:43:28.570Z,0.10
2023-02-26T11:46:00.834Z,0.10
2023-02-26T11:48:41.133Z,0.10
2023-02-26T11:51:13.928Z,0.00
2023-02-26T11:53:49.213Z,0.10
2023-02-26T11:56:27.813Z,0.20
2023-02-26T11:58:56.880Z,0.10
2023-02-26T12:01:29.959Z,0.00
2023-02-26T12:04:04.170Z,0.10
2023-02-26T12:06:33.046Z,0.05
2023-02-26T12:09:02.539Z,0.10
2023-02-26T12:11:50.443Z,0.00
2023-02-26T12:14:39.822Z,0.10
2023-02-26T12:17:18.353Z,0.10
2023-02-26T12:19:53.846Z,0.10
2023-02-26T12:22:45.085Z,0.10
2023-02-26T12:25:28.082Z,0.50
2023-02-26T12:28:10.217Z,0.85
2023-02-26T12:30:55.886Z,1.02
2023-02-26T12:33:35.915Z,0.50
2023-02-26T12:36:18.831Z,0.57
2023-02-26T12:38:59.186Z,0.50
2023-02-26T12:41:40.588Z,1.25
2023-02-26T12:44:24.475Z,0.20
2023-02-26T12:47:05.540Z,0.30
2023-02-26T12:49:56.280Z,0.60
2023-02-26T12:52:57.205Z,0.60
2023-02-26T12:55:34.295Z,0.20
2023-02-26T12:58:36.328Z,1.05
2023-02-26T13:01:33.678Z,0.73
2023-02-26T13:04:29.370Z,0.20
2023-02-26T13:07:22.887Z,0.30
2023-02-26T13:10:03.105Z,0.10
2023-02-26T13:12:43.637Z,0.13
2023-02-26T13:15:39.317Z,0.10
2023-02-26T13:18:13.529Z,0.10
2023-02-26T13:20:56.650Z,0.20
2023-02-26T13:23:28.106Z,0.10
2023-02-26T13:26:01.907Z,0.15
2023-02-26T13:28:42.421Z,0.10
2023-02-26T13:31:18.230Z,0.22
2023-02-26T13:33:47.445Z,0.10
2023-02-26T13:36:17.136Z,0.00
2023-02-26T13:39:04.866Z,0.00
2023-02-26T13:41:45.802Z,0.20
2023-02-26T13:44:26.090Z,0.03
2023-02-26T13:47:24.402Z,0.20
2023-02-26T13:50:04.696Z,0.20
2023-02-26T13:52:36.094Z,0.10
2023-02-26T13:55:06.504Z,0.00
2023-02-26T13:57:44.328Z,0.30
2023-02-26T14:00:28.455Z,0.17
2023-02-26T14:02:59.172Z,0.28
2023-02-26T14:05:37.734Z,0.20
2023-02-26T14:08:27.807Z,0.10
2023-02-26T14:10:59.619Z,0.10
2023-02-26T14:13:37.142Z,0.47
2023-02-26T14:16:13.763Z,0.03
2023-02-26T14:18:52.736Z,0.15
2023-02-26T14:21:49.786Z,0.30
2023-02-26T14:24:23.256Z,0.20
2023-02-26T14:27:08.649Z,0.30
2023-02-26T14:29:44.296Z,0.13
2023-02-26T14:32:29.484Z,0.10
2023-02-26T14:35:01.176Z,0.10
2023-02-26T14:37:32.131Z,0.10
2023-02-26T14:40:09.007Z,0.10
2023-02-26T14:42:42.520Z,0.10
2023-02-26T14:45:28.485Z,0.10
2023-02-26T14:47:57.773Z,0.10
2023-02-26T14:50:27.208Z,0.20
2023-02-26T14:53:25.212Z,0.40
2023-02-26T14:56:05.545Z,0.10
2023-02-26T14:59:08.452Z,0.10
2023-02-26T15:01:47.722Z,0.15
2023-02-26T15:04:35.642Z,0.47
2023-02-26T15:07:22.915Z,0.10
2023-02-26T15:10:12.470Z,0.10
2023-02-26T15:12:53.165Z,0.13
2023-02-26T15:15:37.919Z,0.10
2023-02-26T15:18:43.663Z,0.17
2023-02-26T15:21:20.137Z,0.30
2023-02-26T15:23:51.796Z,0.10
2023-02-26T15:26:25.185Z,0.00
2023-02-26T15:28:55.148Z,0.00
2023-02-26T15:31:32.569Z,0.10
2023-02-26T15:34:03.130Z,0.47
2023-02-26T15:36:32.805Z,0.13
2023-02-26T15:39:03.984Z,0.13
2023-02-26T15:41:33.853Z,0.20
2023-02-26T15:44:06.437Z,0.40
2023-02-26T15:46:38.628Z,0.35
2023-02-26T15:49:11.971Z,0.00
2023-02-26T15:51:40.926Z,0.28
2023-02-26T15:54:09.385Z,0.10
2023-02-26T15:56:41.670Z,1.00
2023-02-26T15:59:14.835Z,0.10
2023-02-26T16:01:44.790Z,0.00
2023-02-26T16:04:17.660Z,0.20
2023-02-26T16:06:48.578Z,0.10
2023-02-26T16:09:19.696Z,0.10
2023-02-26T16:11:49.852Z,0.30
2023-02-26T16:14:22.593Z,0.10
2023-02-26T16:16:53.263Z,0.20
2023-02-26T16:19:35.255Z,0.15
2023-02-26T16:22:09.123Z,0.20
2023-02-26T16:24:37.652Z,0.10
2023-02-26T16:27:09.594Z,0.20
2023-02-26T16:29:42.206Z,0.10
2023-02-26T16:32:14.100Z,0.03
2023-02-26T16:34:50.120Z,0.10
2023-02-26T16:37:28.398Z,0.28
2023-02-26T16:39:59.723Z,0.10
2023-02-26T16:42:42.050Z,1.02
2023-02-26T16:45:21.097Z,0.43
2023-02-26T16:47:52.134Z,0.20
2023-02-26T16:50:28.094Z,0.20
2023-02-26T16:53:03.315Z,0.10
2023-02-26T16:55:34.247Z,0.10
2023-02-26T16:58:07.145Z,0.13
2023-02-26T17:00:37.526Z,0.10
2023-02-26T17:03:13.557Z,0.20
2023-02-26T17:05:50.111Z,0.20
2023-02-26T17:08:21.467Z,0.20
2023-02-26T17:10:52.413Z,0.17
2023-02-26T17:13:26.382Z,0.10
2023-02-26T17:15:55.178Z,0.30
2023-02-26T17:18:23.659Z,0.10
2023-02-26T17:20:54.267Z,0.20
2023-02-26T17:23:24.460Z,0.10
2023-02-26T17:25:56.518Z,0.20
2023-02-26T17:28:27.479Z,0.20
2023-02-26T17:30:56.500Z,0.10
2023-02-26T17:33:24.936Z,0.20
2023-02-26T17:36:00.003Z,0.10
2023-02-26T17:38:28.940Z,0.20
2023-02-26T17:40:58.397Z,0.20
2023-02-26T17:43:28.117Z,0.20
2023-02-26T17:45:57.339Z,0.17
2023-02-26T17:48:26.670Z,0.15
2023-02-26T17:50:58.084Z,0.17
2023-02-26T17:53:28.433Z,0.20
2023-02-26T17:55:57.493Z,0.15
2023-02-26T17:58:29.809Z,0.17
2023-02-26T18:00:58.685Z,0.10
2023-02-26T18:03:27.881Z,0.20
2023-02-26T18:05:58.608Z,0.10
2023-02-26T18:08:28.726Z,0.20
2023-02-26T18:10:58.108Z,0.15
2023-02-26T18:13:27.663Z,0.10
2023-02-26T18:15:58.650Z,0.13
2023-02-26T18:18:27.845Z,0.15
2023-02-26T18:20:57.765Z,0.10
2023-02-26T18:23:26.392Z,0.63
2023-02-26T18:25:56.502Z,0.17
2023-02-26T18:28:26.887Z,0.20
2023-02-26T18:30:56.739Z,0.22
2023-02-26T18:33:25.936Z,0.82
2023-02-26T18:35:56.889Z,0.35
2023-02-26T18:38:28.637Z,0.10
2023-02-26T18:40:58.290Z,0.10
2023-02-26T18:43:27.416Z,0.20
2023-02-26T18:45:57.290Z,0.17
2023-02-26T18:48:26.128Z,0.43
2023-02-26T18:50:55.851Z,0.10
2023-02-26T18:53:26.563Z,0.20
2023-02-26T18:55:58.222Z,0.32
2023-02-26T18:58:27.944Z,0.30
2023-02-26T19:00:56.877Z,0.10
2023-02-26T19:03:25.191Z,0.20
2023-02-26T19:06:00.086Z,0.20
2023-02-26T19:08:28.878Z,0.20
2023-02-26T19:10:59.505Z,0.22
2023-02-26T19:13:29.075Z,0.30
2023-02-26T19:15:57.640Z,0.10
2023-02-26T19:18:26.090Z,0.30
2023-02-26T19:20:55.642Z,0.20
2023-02-26T19:23:24.544Z,0.30
2023-02-26T19:25:53.440Z,0.20
2023-02-26T19:28:23.220Z,0.20
2023-02-26T19:30:55.884Z,0.13
2023-02-26T19:33:24.624Z,0.40
2023-02-26T19:35:53.609Z,0.30
2023-02-26T19:38:23.527Z,0.50
2023-02-26T19:40:52.934Z,0.20
2023-02-26T19:43:23.427Z,0.20
2023-02-26T19:45:56.126Z,0.20
2023-02-26T19:48:24.501Z,0.22
2023-02-26T19:50:55.828Z,0.30
2023-02-26T19:53:24.314Z,0.20
2023-02-26T19:55:52.952Z,0.20
2023-02-26T19:58:22.757Z,0.35
2023-02-26T20:00:51.315Z,0.57
2023-02-26T20:03:19.675Z,0.30
2023-02-26T20:05:48.077Z,0.30
2023-02-26T20:08:16.936Z,0.40
2023-02-26T20:10:46.101Z,0.22
2023-02-26T20:13:15.313Z,0.20
2023-02-26T20:15:45.711Z,0.50
2023-02-26T20:18:14.329Z,0.20
2023-02-26T20:20:42.717Z,0.20
2023-02-26T20:23:12.112Z,0.10
2023-02-26T20:25:40.793Z,0.30
2023-02-26T20:28:09.420Z,0.10
2023-02-26T20:30:37.826Z,0.20
2023-02-26T20:33:07.720Z,0.40
2023-02-26T20:35:36.129Z,0.20
2023-02-26T20:38:06.370Z,0.63
2023-02-26T20:40:34.681Z,0.15
2023-02-26T20:43:04.080Z,0.30
2023-02-26T20:45:32.880Z,0.20
2023-02-26T20:48:01.355Z,0.30
2023-02-26T20:50:31.312Z,0.32
2023-02-26T20:53:00.768Z,0.20
2023-02-26T20:55:29.375Z,0.20
2023-02-26T20:57:57.749Z,0.50
2023-02-26T21:00:26.404Z,0.32
2023-02-26T21:02:54.785Z,0.30
2023-02-26T21:05:23.601Z,0.30
2023-02-26T21:07:54.106Z,0.30
2023-02-26T21:10:22.875Z,0.30
2023-02-26T21:12:52.926Z,0.40
2023-02-26T21:15:21.431Z,0.22
2023-02-26T21:17:49.941Z,0.30
2023-02-26T21:20:18.679Z,0.20
2023-02-26T21:22:48.158Z,0.30
2023-02-26T21:25:18.518Z,0.30
2023-02-26T21:27:47.856Z,0.30
2023-02-26T21:30:17.336Z,0.40
2023-02-26T21:32:45.763Z,0.70
2023-02-26T21:35:16.144Z,0.60
2023-02-26T21:37:44.965Z,0.40
2023-02-26T21:40:15.694Z,0.40
2023-02-26T21:42:45.960Z,0.60
2023-02-26T21:45:14.311Z,0.60
2023-02-26T21:47:43.978Z,0.40
2023-02-26T21:50:13.000Z,0.20
2023-02-26T21:52:41.836Z,0.40
2023-02-26T21:55:11.615Z,0.40
2023-02-26T21:57:40.286Z,0.50
2023-02-26T22:00:11.740Z,0.22
2023-02-26T22:02:41.193Z,0.40
2023-02-26T22:05:11.174Z,0.40
2023-02-26T22:07:40.326Z,0.60
2023-02-26T22:10:10.506Z,1.30
2023-02-26T22:12:38.856Z,0.90
2023-02-26T22:15:10.296Z,1.30
2023-02-26T22:17:38.768Z,3.60
2023-02-26T22:20:09.963Z,1.80
2023-02-26T22:22:38.912Z,3.08
2023-02-26T22:25:08.689Z,3.42
2023-02-26T22:27:37.937Z,3.13
2023-02-26T22:30:07.750Z,3.10
2023-02-26T22:32:37.761Z,2.55
2023-02-26T22:35:06.872Z,2.03
2023-02-26T22:37:35.868Z,1.00
2023-02-26T22:40:04.814Z,0.70
2023-02-26T22:42:33.155Z,0.50
2023-02-26T22:45:02.671Z,0.40
2023-02-26T22:47:31.000Z,0.52
2023-02-26T22:50:00.756Z,0.35
2023-02-26T22:52:29.181Z,0.50
2023-02-26T22:54:57.666Z,0.50
2023-02-26T22:57:26.115Z,0.40
2023-02-26T22:59:54.520Z,0.40
2023-02-26T23:02:22.947Z,0.52
2023-02-26T23:04:51.371Z,0.85
2023-02-26T23:07:21.292Z,2.25
2023-02-26T23:09:49.665Z,2.97
2023-02-26T23:12:18.663Z,2.80
2023-02-26T23:14:47.029Z,3.03
2023-02-26T23:17:15.616Z,2.10
2023-02-26T23:19:43.998Z,2.03
2023-02-26T23:22:12.334Z,1.85
2023-02-26T23:24:42.583Z,1.30
2023-02-26T23:27:11.084Z,0.60
2023-02-26T23:29:39.401Z,1.05
2023-02-26T23:32:07.825Z,0.70
2023-02-26T23:34:36.336Z,0.50
2023-02-26T23:37:05.897Z,0.30
2023-02-26T23:39:34.381Z,0.30
2023-02-26T23:42:04.278Z,0.60
2023-02-26T23:44:32.730Z,0.40
2023-02-26T23:47:01.126Z,0.40
2023-02-26T23:49:29.493Z,0.30
2023-02-26T23:51:57.824Z,0.50
2023-02-26T23:54:26.228Z,0.50
2023-02-26T23:56:54.735Z,0.50
2023-02-26T23:59:24.458Z,0.30
